sensor_id;sensor_type;location;lat;lon;timestamp;pressure;altitude;pressure_sealevel;temperature
64947;BMP280;51469;52.150;4.682;2023-07-20T00:03:13;101705.19;;;22.84
64947;BMP280;51469;52.150;4.682;2023-07-20T00:05:50;101718.31;;;22.88
64947;BMP280;51469;52.150;4.682;2023-07-20T00:08:16;101715.94;;;22.86
64947;BMP280;51469;52.150;4.682;2023-07-20T00:10:42;101719.16;;;22.84
64947;BMP280;51469;52.150;4.682;2023-07-20T00:13:08;101702.19;;;22.79
64947;BMP280;51469;52.150;4.682;2023-07-20T00:15:33;101706.06;;;22.82
64947;BMP280;51469;52.150;4.682;2023-07-20T00:17:59;101709.78;;;22.79
64947;BMP280;51469;52.150;4.682;2023-07-20T00:20:24;101709.41;;;22.77
64947;BMP280;51469;52.150;4.682;2023-07-20T00:22:50;101699.97;;;22.30
64947;BMP280;51469;52.150;4.682;2023-07-20T00:25:16;101699.88;;;22.33
64947;BMP280;51469;52.150;4.682;2023-07-20T00:27:42;101704.38;;;22.43
64947;BMP280;51469;52.150;4.682;2023-07-20T00:30:07;101706.66;;;22.48
64947;BMP280;51469;52.150;4.682;2023-07-20T00:32:33;101705.06;;;22.47
64947;BMP280;51469;52.150;4.682;2023-07-20T00:34:58;101713.00;;;22.49
64947;BMP280;51469;52.150;4.682;2023-07-20T00:37:24;101705.84;;;22.48
64947;BMP280;51469;52.150;4.682;2023-07-20T00:39:49;101702.91;;;22.39
64947;BMP280;51469;52.150;4.682;2023-07-20T00:42:14;101707.59;;;22.42
64947;BMP280;51469;52.150;4.682;2023-07-20T00:44:40;101702.91;;;22.39
64947;BMP280;51469;52.150;4.682;2023-07-20T00:47:05;101706.94;;;22.38
64947;BMP280;51469;52.150;4.682;2023-07-20T00:49:31;101710.25;;;22.33
64947;BMP280;51469;52.150;4.682;2023-07-20T00:51:57;101703.19;;;22.28
64947;BMP280;51469;52.150;4.682;2023-07-20T00:54:22;101706.75;;;22.29
64947;BMP280;51469;52.150;4.682;2023-07-20T00:56:48;101703.09;;;22.32
64947;BMP280;51469;52.150;4.682;2023-07-20T00:59:15;101704.34;;;22.15
64947;BMP280;51469;52.150;4.682;2023-07-20T01:01:41;101705.03;;;22.19
64947;BMP280;51469;52.150;4.682;2023-07-20T01:04:06;101701.91;;;22.17
64947;BMP280;51469;52.150;4.682;2023-07-20T01:06:53;101700.34;;;22.16
64947;BMP280;51469;52.150;4.682;2023-07-20T01:09:28;101705.16;;;22.15
64947;BMP280;51469;52.150;4.682;2023-07-20T01:12:07;101708.34;;;22.14
64947;BMP280;51469;52.150;4.682;2023-07-20T01:14:34;101708.34;;;22.14
64947;BMP280;51469;52.150;4.682;2023-07-20T01:17:00;101711.50;;;22.16
64947;BMP280;51469;52.150;4.682;2023-07-20T01:19:25;101705.56;;;22.14
64947;BMP280;51469;52.150;4.682;2023-07-20T01:21:59;101707.50;;;22.01
64947;BMP280;51469;52.150;4.682;2023-07-20T01:30:21;101710.66;;;21.87
64947;BMP280;51469;52.150;4.682;2023-07-20T01:32:52;101717.81;;;21.88
64947;BMP280;51469;52.150;4.682;2023-07-20T01:35:20;101718.69;;;21.85
64947;BMP280;51469;52.150;4.682;2023-07-20T01:37:49;101712.41;;;21.81
64947;BMP280;51469;52.150;4.682;2023-07-20T01:40:16;101718.00;;;21.81
64947;BMP280;51469;52.150;4.682;2023-07-20T01:42:48;101698.34;;;21.68
64947;BMP280;51469;52.150;4.682;2023-07-20T01:45:13;101714.50;;;21.77
64947;BMP280;51469;52.150;4.682;2023-07-20T01:47:39;101714.13;;;21.75
64947;BMP280;51469;52.150;4.682;2023-07-20T01:50:06;101714.13;;;21.75
64947;BMP280;51469;52.150;4.682;2023-07-20T01:52:31;101714.28;;;21.68
64947;BMP280;51469;52.150;4.682;2023-07-20T01:54:57;101719.13;;;21.67
64947;BMP280;51469;52.150;4.682;2023-07-20T01:57:22;101715.09;;;21.68
64947;BMP280;51469;52.150;4.682;2023-07-20T01:59:48;101715.91;;;21.69
64947;BMP280;51469;52.150;4.682;2023-07-20T02:02:13;101718.31;;;21.67
64947;BMP280;51469;52.150;4.682;2023-07-20T02:04:38;101720.75;;;21.65
64947;BMP280;51469;52.150;4.682;2023-07-20T02:07:05;101727.22;;;21.62
64947;BMP280;51469;52.150;4.682;2023-07-20T02:09:31;101725.28;;;21.59
64947;BMP280;51469;52.150;4.682;2023-07-20T02:11:56;101716.19;;;21.55
64947;BMP280;51469;52.150;4.682;2023-07-20T02:14:22;101713.94;;;21.50
64947;BMP280;51469;52.150;4.682;2023-07-20T02:16:48;101721.13;;;21.51
64947;BMP280;51469;52.150;4.682;2023-07-20T02:19:18;101718.84;;;21.46
64947;BMP280;51469;52.150;4.682;2023-07-20T02:21:44;101720.03;;;21.45
64947;BMP280;51469;52.150;4.682;2023-07-20T02:24:09;101718.13;;;21.42
64947;BMP280;51469;52.150;4.682;2023-07-20T02:26:35;101713.03;;;21.37
64947;BMP280;51469;52.150;4.682;2023-07-20T02:29:00;101710.44;;;21.30
64947;BMP280;51469;52.150;4.682;2023-07-20T02:31:25;101716.59;;;21.21
64947;BMP280;51469;52.150;4.682;2023-07-20T02:33:51;101705.84;;;21.20
64947;BMP280;51469;52.150;4.682;2023-07-20T02:36:16;101709.84;;;21.19
64947;BMP280;51469;52.150;4.682;2023-07-20T02:38:42;101713.06;;;21.17
64947;BMP280;51469;52.150;4.682;2023-07-20T02:41:07;101711.97;;;21.15
64947;BMP280;51469;52.150;4.682;2023-07-20T02:43:33;101715.50;;;21.15
64947;BMP280;51469;52.150;4.682;2023-07-20T02:45:58;101719.59;;;21.11
64947;BMP280;51469;52.150;4.682;2023-07-20T02:48:24;101713.28;;;21.07
64947;BMP280;51469;52.150;4.682;2023-07-20T02:50:49;101719.72;;;21.04
64947;BMP280;51469;52.150;4.682;2023-07-20T02:53:14;101722.19;;;21.02
64947;BMP280;51469;52.150;4.682;2023-07-20T02:55:40;101720.66;;;20.97
64947;BMP280;51469;52.150;4.682;2023-07-20T02:58:05;101724.75;;;20.93
64947;BMP280;51469;52.150;4.682;2023-07-20T03:00:30;101728.75;;;20.92
64947;BMP280;51469;52.150;4.682;2023-07-20T03:02:56;101722.03;;;20.89
64947;BMP280;51469;52.150;4.682;2023-07-20T03:05:22;101726.41;;;20.90
64947;BMP280;51469;52.150;4.682;2023-07-20T03:07:50;101722.44;;;20.88
64947;BMP280;51469;52.150;4.682;2023-07-20T03:10:16;101732.06;;;20.87
64947;BMP280;51469;52.150;4.682;2023-07-20T03:12:41;101725.75;;;20.83
64947;BMP280;51469;52.150;4.682;2023-07-20T03:15:07;101734.25;;;20.76
64947;BMP280;51469;52.150;4.682;2023-07-20T03:17:32;101728.34;;;20.74
64947;BMP280;51469;52.150;4.682;2023-07-20T03:19:58;101733.19;;;20.70
64947;BMP280;51469;52.150;4.682;2023-07-20T03:22:25;101743.69;;;20.62
64947;BMP280;51469;52.150;4.682;2023-07-20T03:24:50;101749.34;;;20.59
64947;BMP280;51469;52.150;4.682;2023-07-20T03:27:16;101750.09;;;20.59
64947;BMP280;51469;52.150;4.682;2023-07-20T03:29:42;101744.09;;;20.61
64947;BMP280;51469;52.150;4.682;2023-07-20T03:32:07;101746.88;;;20.61
64947;BMP280;51469;52.150;4.682;2023-07-20T03:34:33;101747.69;;;20.61
64947;BMP280;51469;52.150;4.682;2023-07-20T03:36:58;101746.88;;;20.61
64947;BMP280;51469;52.150;4.682;2023-07-20T03:39:24;101747.81;;;20.54
64947;BMP280;51469;52.150;4.682;2023-07-20T03:41:50;101756.97;;;20.55
64947;BMP280;51469;52.150;4.682;2023-07-20T03:44:15;101757.81;;;20.52
64947;BMP280;51469;52.150;4.682;2023-07-20T03:46:40;101758.28;;;20.47
64947;BMP280;51469;52.150;4.682;2023-07-20T03:49:06;101759.53;;;20.46
64947;BMP280;51469;52.150;4.682;2023-07-20T03:51:32;101764.72;;;20.44
64947;BMP280;51469;52.150;4.682;2023-07-20T03:53:57;101762.72;;;20.44
64947;BMP280;51469;52.150;4.682;2023-07-20T03:56:23;101760.72;;;20.45
64947;BMP280;51469;52.150;4.682;2023-07-20T03:58:49;101765.50;;;20.44
64947;BMP280;51469;52.150;4.682;2023-07-20T04:01:14;101765.19;;;20.39
64947;BMP280;51469;52.150;4.682;2023-07-20T04:03:42;101773.56;;;20.39
64947;BMP280;51469;52.150;4.682;2023-07-20T04:06:07;101751.38;;;20.32
64947;BMP280;51469;52.150;4.682;2023-07-20T04:08:33;101766.28;;;20.45
64947;BMP280;51469;52.150;4.682;2023-07-20T04:11:01;101766.97;;;20.52
64947;BMP280;51469;52.150;4.682;2023-07-20T04:13:27;101764.81;;;20.60
64947;BMP280;51469;52.150;4.682;2023-07-20T04:15:53;101758.75;;;20.65
64947;BMP280;51469;52.150;4.682;2023-07-20T04:18:18;101758.63;;;20.72
64947;BMP280;51469;52.150;4.682;2023-07-20T04:20:43;101768.50;;;20.76
64947;BMP280;51469;52.150;4.682;2023-07-20T04:23:09;101767.22;;;20.81
64947;BMP280;51469;52.150;4.682;2023-07-20T04:25:34;101758.84;;;20.81
64947;BMP280;51469;52.150;4.682;2023-07-20T04:28:04;101761.63;;;20.81
64947;BMP280;51469;52.150;4.682;2023-07-20T04:30:30;101760.38;;;20.85
64947;BMP280;51469;52.150;4.682;2023-07-20T04:32:55;101756.72;;;20.88
64947;BMP280;51469;52.150;4.682;2023-07-20T04:38:11;101768.16;;;20.94
64947;BMP280;51469;52.150;4.682;2023-07-20T04:40:36;101769.22;;;21.03
64947;BMP280;51469;52.150;4.682;2023-07-20T04:43:01;101772.25;;;21.09
64947;BMP280;51469;52.150;4.682;2023-07-20T04:45:26;101774.41;;;21.21
64947;BMP280;51469;52.150;4.682;2023-07-20T04:47:52;101781.41;;;21.29
64947;BMP280;51469;52.150;4.682;2023-07-20T04:50:17;101786.72;;;21.43
64947;BMP280;51469;52.150;4.682;2023-07-20T04:52:42;101776.81;;;21.58
64947;BMP280;51469;52.150;4.682;2023-07-20T04:55:08;101784.44;;;21.73
64947;BMP280;51469;52.150;4.682;2023-07-20T04:57:34;101782.59;;;21.83
64947;BMP280;51469;52.150;4.682;2023-07-20T04:59:59;101781.66;;;21.89
64947;BMP280;51469;52.150;4.682;2023-07-20T05:02:25;101779.84;;;21.99
64947;BMP280;51469;52.150;4.682;2023-07-20T05:04:50;101791.34;;;21.85
64947;BMP280;51469;52.150;4.682;2023-07-20T05:07:15;101788.16;;;21.51
64947;BMP280;51469;52.150;4.682;2023-07-20T05:09:41;101779.47;;;21.45
64947;BMP280;51469;52.150;4.682;2023-07-20T05:12:06;101783.63;;;21.73
64947;BMP280;51469;52.150;4.682;2023-07-20T05:14:32;101766.69;;;21.80
64947;BMP280;51469;52.150;4.682;2023-07-20T05:16:58;101785.41;;;21.99
64947;BMP280;51469;52.150;4.682;2023-07-20T05:19:24;101776.97;;;21.51
64947;BMP280;51469;52.150;4.682;2023-07-20T05:21:50;101779.03;;;21.63
64947;BMP280;51469;52.150;4.682;2023-07-20T05:24:15;101776.69;;;21.81
64947;BMP280;51469;52.150;4.682;2023-07-20T05:26:41;101781.56;;;21.93
64947;BMP280;51469;52.150;4.682;2023-07-20T05:29:06;101773.34;;;22.02
64947;BMP280;51469;52.150;4.682;2023-07-20T05:31:31;101780.59;;;21.99
64947;BMP280;51469;52.150;4.682;2023-07-20T05:33:57;101780.97;;;21.85
64947;BMP280;51469;52.150;4.682;2023-07-20T05:36:22;101764.81;;;21.93
64947;BMP280;51469;52.150;4.682;2023-07-20T05:38:48;101776.53;;;22.04
64947;BMP280;51469;52.150;4.682;2023-07-20T05:41:14;101774.66;;;22.13
64947;BMP280;51469;52.150;4.682;2023-07-20T05:43:39;101781.03;;;22.14
64947;BMP280;51469;52.150;4.682;2023-07-20T05:46:07;101781.66;;;22.21
64947;BMP280;51469;52.150;4.682;2023-07-20T05:48:32;101784.03;;;22.23
64947;BMP280;51469;52.150;4.682;2023-07-20T05:50:58;101782.75;;;22.24
64947;BMP280;51469;52.150;4.682;2023-07-20T05:53:23;101772.41;;;22.08
64947;BMP280;51469;52.150;4.682;2023-07-20T05:55:53;101787.00;;;22.16
64947;BMP280;51469;52.150;4.682;2023-07-20T05:58:18;101783.84;;;22.30
64947;BMP280;51469;52.150;4.682;2023-07-20T06:00:44;101783.03;;;22.29
64947;BMP280;51469;52.150;4.682;2023-07-20T06:03:09;101791.72;;;22.35
64947;BMP280;51469;52.150;4.682;2023-07-20T06:05:36;101786.25;;;22.44
64947;BMP280;51469;52.150;4.682;2023-07-20T06:08:01;101784.94;;;22.64
64947;BMP280;51469;52.150;4.682;2023-07-20T06:10:27;101788.03;;;22.38
64947;BMP280;51469;52.150;4.682;2023-07-20T06:12:52;101796.84;;;22.52
64947;BMP280;51469;52.150;4.682;2023-07-20T06:15:30;101776.66;;;22.45
64947;BMP280;51469;52.150;4.682;2023-07-20T06:17:56;101781.72;;;22.78
64947;BMP280;51469;52.150;4.682;2023-07-20T06:20:23;101785.56;;;22.24
64947;BMP280;51469;52.150;4.682;2023-07-20T06:22:48;101788.72;;;22.26
64947;BMP280;51469;52.150;4.682;2023-07-20T06:25:14;101785.38;;;22.63
64947;BMP280;51469;52.150;4.682;2023-07-20T06:27:39;101793.09;;;22.99
64947;BMP280;51469;52.150;4.682;2023-07-20T06:30:05;101793.34;;;22.92
64947;BMP280;51469;52.150;4.682;2023-07-20T06:32:30;101788.09;;;23.07
64947;BMP280;51469;52.150;4.682;2023-07-20T06:34:56;101792.84;;;23.22
64947;BMP280;51469;52.150;4.682;2023-07-20T06:37:22;101790.63;;;23.42
64947;BMP280;51469;52.150;4.682;2023-07-20T06:39:47;101794.47;;;23.61
64947;BMP280;51469;52.150;4.682;2023-07-20T06:42:12;101793.63;;;23.23
64947;BMP280;51469;52.150;4.682;2023-07-20T06:44:37;101786.91;;;23.45
64947;BMP280;51469;52.150;4.682;2023-07-20T06:47:03;101798.50;;;23.60
64947;BMP280;51469;52.150;4.682;2023-07-20T06:49:29;101792.97;;;23.81
64947;BMP280;51469;52.150;4.682;2023-07-20T06:51:54;101798.41;;;23.10
64947;BMP280;51469;52.150;4.682;2023-07-20T06:54:20;101803.28;;;23.34
64947;BMP280;51469;52.150;4.682;2023-07-20T06:56:45;101800.63;;;23.43
64947;BMP280;51469;52.150;4.682;2023-07-20T06:59:11;101791.34;;;23.59
64947;BMP280;51469;52.150;4.682;2023-07-20T07:01:36;101805.78;;;23.82
64947;BMP280;51469;52.150;4.682;2023-07-20T07:04:01;101803.53;;;23.77
64947;BMP280;51469;52.150;4.682;2023-07-20T07:06:27;101790.25;;;24.15
64947;BMP280;51469;52.150;4.682;2023-07-20T07:08:53;101797.38;;;24.41
64947;BMP280;51469;52.150;4.682;2023-07-20T07:11:18;101804.06;;;24.56
64947;BMP280;51469;52.150;4.682;2023-07-20T07:13:44;101803.81;;;24.63
64947;BMP280;51469;52.150;4.682;2023-07-20T07:16:12;101804.31;;;24.71
64947;BMP280;51469;52.150;4.682;2023-07-20T07:18:37;101804.06;;;24.78
64947;BMP280;51469;52.150;4.682;2023-07-20T07:21:05;101806.81;;;24.69
64947;BMP280;51469;52.150;4.682;2023-07-20T07:23:30;101802.50;;;24.77
64947;BMP280;51469;52.150;4.682;2023-07-20T07:25:56;101801.28;;;24.99
64947;BMP280;51469;52.150;4.682;2023-07-20T07:28:21;101804.22;;;25.17
64947;BMP280;51469;52.150;4.682;2023-07-20T07:30:46;101802.34;;;25.23
64947;BMP280;51469;52.150;4.682;2023-07-20T07:33:12;101799.88;;;25.25
64947;BMP280;51469;52.150;4.682;2023-07-20T07:35:38;101801.97;;;25.34
64947;BMP280;51469;52.150;4.682;2023-07-20T07:38:04;101801.47;;;25.35
64947;BMP280;51469;52.150;4.682;2023-07-20T07:40:31;101797.59;;;25.42
64947;BMP280;51469;52.150;4.682;2023-07-20T07:42:56;101798.41;;;25.51
64947;BMP280;51469;52.150;4.682;2023-07-20T07:45:22;101800.59;;;25.47
64947;BMP280;51469;52.150;4.682;2023-07-20T07:47:47;101799.75;;;25.38
64947;BMP280;51469;52.150;4.682;2023-07-20T07:50:12;101806.81;;;25.42
64947;BMP280;51469;52.150;4.682;2023-07-20T07:52:38;101806.94;;;25.08
64947;BMP280;51469;52.150;4.682;2023-07-20T07:55:03;101814.09;;;25.31
64947;BMP280;51469;52.150;4.682;2023-07-20T07:57:29;101812.47;;;25.51
64947;BMP280;51469;52.150;4.682;2023-07-20T07:59:54;101803.22;;;25.81
64947;BMP280;51469;52.150;4.682;2023-07-20T08:02:20;101808.66;;;25.36
64947;BMP280;51469;52.150;4.682;2023-07-20T08:04:45;101806.69;;;25.85
64947;BMP280;51469;52.150;4.682;2023-07-20T08:07:11;101798.91;;;26.07
64947;BMP280;51469;52.150;4.682;2023-07-20T08:09:36;101802.59;;;25.16
64947;BMP280;51469;52.150;4.682;2023-07-20T08:12:02;101800.41;;;25.81
64947;BMP280;51469;52.150;4.682;2023-07-20T08:14:28;101806.72;;;26.12
64947;BMP280;51469;52.150;4.682;2023-07-20T08:16:54;101803.59;;;26.28
64947;BMP280;51469;52.150;4.682;2023-07-20T08:19:19;101806.75;;;26.30
64947;BMP280;51469;52.150;4.682;2023-07-20T08:21:45;101799.25;;;26.36
64947;BMP280;51469;52.150;4.682;2023-07-20T08:24:10;101802.34;;;26.20
64947;BMP280;51469;52.150;4.682;2023-07-20T08:26:35;101809.84;;;26.23
64947;BMP280;51469;52.150;4.682;2023-07-20T08:29:01;101813.72;;;25.98
64947;BMP280;51469;52.150;4.682;2023-07-20T08:31:26;101816.50;;;25.89
64947;BMP280;51469;52.150;4.682;2023-07-20T08:33:53;101809.78;;;25.87
64947;BMP280;51469;52.150;4.682;2023-07-20T08:36:18;101811.34;;;25.79
64947;BMP280;51469;52.150;4.682;2023-07-20T08:38:44;101806.03;;;25.90
64947;BMP280;51469;52.150;4.682;2023-07-20T08:41:09;101809.69;;;25.60
64947;BMP280;51469;52.150;4.682;2023-07-20T08:43:36;101810.31;;;25.55
64947;BMP280;51469;52.150;4.682;2023-07-20T08:46:03;101810.53;;;25.69
64947;BMP280;51469;52.150;4.682;2023-07-20T08:48:30;101813.75;;;25.59
64947;BMP280;51469;52.150;4.682;2023-07-20T08:50:56;101816.63;;;25.68
64947;BMP280;51469;52.150;4.682;2023-07-20T08:53:23;101805.09;;;25.75
64947;BMP280;51469;52.150;4.682;2023-07-20T08:55:50;101809.19;;;25.92
64947;BMP280;51469;52.150;4.682;2023-07-20T08:58:18;101811.09;;;26.04
64947;BMP280;51469;52.150;4.682;2023-07-20T09:00:44;101813.94;;;26.13
64947;BMP280;51469;52.150;4.682;2023-07-20T09:03:10;101817.97;;;26.03
64947;BMP280;51469;52.150;4.682;2023-07-20T09:05:36;101819.50;;;25.95
64947;BMP280;51469;52.150;4.682;2023-07-20T09:08:01;101824.25;;;26.16
64947;BMP280;51469;52.150;4.682;2023-07-20T09:10:30;101814.56;;;26.35
64947;BMP280;51469;52.150;4.682;2023-07-20T09:12:55;101815.53;;;26.50
64947;BMP280;51469;52.150;4.682;2023-07-20T09:15:22;101812.72;;;26.50
64947;BMP280;51469;52.150;4.682;2023-07-20T09:17:49;101808.31;;;26.67
64947;BMP280;51469;52.150;4.682;2023-07-20T09:20:16;101799.53;;;26.83
64947;BMP280;51469;52.150;4.682;2023-07-20T09:22:42;101802.97;;;26.78
64947;BMP280;51469;52.150;4.682;2023-07-20T09:25:11;101797.94;;;27.00
64947;BMP280;51469;52.150;4.682;2023-07-20T09:27:40;101802.78;;;26.99
64947;BMP280;51469;52.150;4.682;2023-07-20T09:30:06;101801.38;;;26.95
64947;BMP280;51469;52.150;4.682;2023-07-20T09:32:46;101798.84;;;27.15
64947;BMP280;51469;52.150;4.682;2023-07-20T09:35:16;101791.91;;;27.16
64947;BMP280;51469;52.150;4.682;2023-07-20T09:37:58;101790.94;;;26.41
64947;BMP280;51469;52.150;4.682;2023-07-20T09:40:25;101795.16;;;26.73
64947;BMP280;51469;52.150;4.682;2023-07-20T09:42:52;101793.38;;;27.44
64947;BMP280;51469;52.150;4.682;2023-07-20T09:45:17;101799.88;;;27.58
64947;BMP280;51469;52.150;4.682;2023-07-20T09:47:43;101795.66;;;27.31
64947;BMP280;51469;52.150;4.682;2023-07-20T09:50:08;101801.63;;;27.24
64947;BMP280;51469;52.150;4.682;2023-07-20T09:52:39;101802.88;;;27.14
64947;BMP280;51469;52.150;4.682;2023-07-20T09:55:08;101797.00;;;26.85
64947;BMP280;51469;52.150;4.682;2023-07-20T09:57:34;101796.41;;;26.81
64947;BMP280;51469;52.150;4.682;2023-07-20T10:00:02;101791.72;;;26.78
64947;BMP280;51469;52.150;4.682;2023-07-20T10:02:37;101792.66;;;26.03
64947;BMP280;51469;52.150;4.682;2023-07-20T10:05:07;101794.56;;;26.24
64947;BMP280;51469;52.150;4.682;2023-07-20T10:07:43;101796.13;;;26.34
64947;BMP280;51469;52.150;4.682;2023-07-20T10:10:09;101793.16;;;26.46
64947;BMP280;51469;52.150;4.682;2023-07-20T10:12:37;101792.06;;;26.62
64947;BMP280;51469;52.150;4.682;2023-07-20T10:15:20;101791.84;;;26.92
64947;BMP280;51469;52.150;4.682;2023-07-20T10:20:22;101795.13;;;27.00
64947;BMP280;51469;52.150;4.682;2023-07-20T10:22:49;101783.25;;;25.97
64947;BMP280;51469;52.150;4.682;2023-07-20T21:04:18;101573.72;;;23.77
64947;BMP280;51469;52.150;4.682;2023-07-20T21:06:43;101583.13;;;23.83
64947;BMP280;51469;52.150;4.682;2023-07-20T21:09:09;101583.38;;;23.76
64947;BMP280;51469;52.150;4.682;2023-07-20T21:11:34;101588.34;;;23.72
64947;BMP280;51469;52.150;4.682;2023-07-20T21:13:59;101583.66;;;23.69
64947;BMP280;51469;52.150;4.682;2023-07-20T21:16:25;101579.69;;;23.67
64947;BMP280;51469;52.150;4.682;2023-07-20T21:18:50;101586.88;;;23.68
64947;BMP280;51469;52.150;4.682;2023-07-20T21:21:15;101581.16;;;23.71
64947;BMP280;51469;52.150;4.682;2023-07-20T21:23:41;101580.97;;;23.53
64947;BMP280;51469;52.150;4.682;2023-07-20T21:26:06;101585.38;;;23.54
64947;BMP280;51469;52.150;4.682;2023-07-20T21:28:32;101579.53;;;23.61
64947;BMP280;51469;52.150;4.682;2023-07-20T21:31:05;101581.41;;;23.64
64947;BMP280;51469;52.150;4.682;2023-07-20T21:33:31;101584.53;;;23.66
64947;BMP280;51469;52.150;4.682;2023-07-20T21:35:56;101582.06;;;23.68
64947;BMP280;51469;52.150;4.682;2023-07-20T21:38:22;101575.69;;;23.68
64947;BMP280;51469;52.150;4.682;2023-07-20T21:40:48;101577.44;;;23.74
64947;BMP280;51469;52.150;4.682;2023-07-20T21:43:13;101576.53;;;23.77
64947;BMP280;51469;52.150;4.682;2023-07-20T21:45:39;101573.97;;;23.70
64947;BMP280;51469;52.150;4.682;2023-07-20T21:48:06;101581.72;;;23.66
64947;BMP280;51469;52.150;4.682;2023-07-20T21:50:31;101580.50;;;23.67
64947;BMP280;51469;52.150;4.682;2023-07-20T21:52:56;101575.00;;;23.64
64947;BMP280;51469;52.150;4.682;2023-07-20T21:55:24;101570.31;;;23.61
64947;BMP280;51469;52.150;4.682;2023-07-20T21:57:50;101570.75;;;23.59
64947;BMP280;51469;52.150;4.682;2023-07-20T22:00:15;101574.47;;;23.56
64947;BMP280;51469;52.150;4.682;2023-07-20T22:02:43;101570.69;;;23.50
64947;BMP280;51469;52.150;4.682;2023-07-20T22:05:08;101571.59;;;23.47
64947;BMP280;51469;52.150;4.682;2023-07-20T22:07:34;101572.38;;;23.48
64947;BMP280;51469;52.150;4.682;2023-07-20T22:09:59;101574.34;;;23.13
64947;BMP280;51469;52.150;4.682;2023-07-20T22:12:24;101575.34;;;23.07
64947;BMP280;51469;52.150;4.682;2023-07-20T22:14:50;101568.47;;;23.20
64947;BMP280;51469;52.150;4.682;2023-07-20T22:17:15;101574.75;;;23.24
64947;BMP280;51469;52.150;4.682;2023-07-20T22:19:41;101570.50;;;23.32
64947;BMP280;51469;52.150;4.682;2023-07-20T22:22:07;101556.81;;;23.34
64947;BMP280;51469;52.150;4.682;2023-07-20T22:24:33;101555.56;;;23.35
64947;BMP280;51469;52.150;4.682;2023-07-20T22:26:58;101557.50;;;23.38
64947;BMP280;51469;52.150;4.682;2023-07-20T22:29:24;101560.63;;;23.40
64947;BMP280;51469;52.150;4.682;2023-07-20T22:31:51;101552.66;;;23.39
64947;BMP280;51469;52.150;4.682;2023-07-20T22:34:16;101557.50;;;23.38
64947;BMP280;51469;52.150;4.682;2023-07-20T22:36:42;101560.63;;;23.40
64947;BMP280;51469;52.150;4.682;2023-07-20T22:39:08;101562.19;;;23.41
64947;BMP280;51469;52.150;4.682;2023-07-20T22:41:34;101556.47;;;23.45
64947;BMP280;51469;52.150;4.682;2023-07-20T22:43:59;101558.97;;;23.18
64947;BMP280;51469;52.150;4.682;2023-07-20T22:46:24;101549.22;;;23.22
64947;BMP280;51469;52.150;4.682;2023-07-20T22:48:50;101551.56;;;23.24
64947;BMP280;51469;52.150;4.682;2023-07-20T22:51:15;101541.16;;;23.24
64947;BMP280;51469;52.150;4.682;2023-07-20T22:53:41;101545.84;;;23.27
64947;BMP280;51469;52.150;4.682;2023-07-20T22:56:06;101548.22;;;23.29
64947;BMP280;51469;52.150;4.682;2023-07-20T22:58:31;101547.75;;;23.30
64947;BMP280;51469;52.150;4.682;2023-07-20T23:00:58;101549.00;;;23.29
64947;BMP280;51469;52.150;4.682;2023-07-20T23:03:25;101547.13;;;23.26
64947;BMP280;51469;52.150;4.682;2023-07-20T23:05:50;101541.97;;;23.25
64947;BMP280;51469;52.150;4.682;2023-07-20T23:08:16;101546.06;;;23.20
64947;BMP280;51469;52.150;4.682;2023-07-20T23:10:41;101538.03;;;23.22
64947;BMP280;51469;52.150;4.682;2023-07-20T23:13:07;101536.47;;;23.21
64947;BMP280;51469;52.150;4.682;2023-07-20T23:15:32;101528.97;;;23.18
64947;BMP280;51469;52.150;4.682;2023-07-20T23:18:00;101532.56;;;23.19
64947;BMP280;51469;52.150;4.682;2023-07-20T23:20:25;101533.47;;;23.16
64947;BMP280;51469;52.150;4.682;2023-07-20T23:22:51;101532.34;;;23.13
64947;BMP280;51469;52.150;4.682;2023-07-20T23:25:20;101533.00;;;23.17
64947;BMP280;51469;52.150;4.682;2023-07-20T23:27:47;101532.56;;;23.19
64947;BMP280;51469;52.150;4.682;2023-07-20T23:30:13;101530.88;;;23.21
64947;BMP280;51469;52.150;4.682;2023-07-20T23:32:40;101538.72;;;23.26
64947;BMP280;51469;52.150;4.682;2023-07-20T23:35:06;101534.00;;;23.23
64947;BMP280;51469;52.150;4.682;2023-07-20T23:37:32;101523.69;;;23.20
64947;BMP280;51469;52.150;4.682;2023-07-20T23:39:57;101533.53;;;23.12
64947;BMP280;51469;52.150;4.682;2023-07-20T23:42:23;101524.28;;;23.03
64947;BMP280;51469;52.150;4.682;2023-07-20T23:44:48;101532.25;;;22.92
64947;BMP280;51469;52.150;4.682;2023-07-20T23:47:14;101525.44;;;22.81
64947;BMP280;51469;52.150;4.682;2023-07-20T23:49:40;101527.75;;;22.70
64947;BMP280;51469;52.150;4.682;2023-07-20T23:52:05;101528.66;;;22.67
64947;BMP280;51469;52.150;4.682;2023-07-20T23:54:31;101529.00;;;22.56
64947;BMP280;51469;52.150;4.682;2023-07-20T23:56:56;101520.16;;;22.45
64947;BMP280;51469;52.150;4.682;2023-07-20T23:59:25;101517.59;;;22.38
